createdAt,value
2017-04-09T00:00:35.926Z,94.93
2017-04-09T00:01:35.613Z,94.84
2017-04-09T00:02:35.901Z,94.46
2017-04-09T00:03:35.885Z,94.27
2017-04-09T00:04:35.868Z,94.27
2017-04-09T00:05:35.851Z,94.08
2017-04-09T00:06:35.839Z,94.08
2017-04-09T00:07:35.820Z,93.61
2017-04-09T00:08:35.807Z,93.89
2017-04-09T00:09:35.792Z,93.8
2017-04-09T00:10:35.782Z,93.04
2017-04-09T00:11:35.762Z,93.32
2017-04-09T00:12:35.752Z,93.42
2017-04-09T00:13:35.735Z,93.61
2017-04-09T00:14:35.717Z,93.32
2017-04-09T00:15:35.709Z,93.13
2017-04-09T00:16:35.689Z,93.04
2017-04-09T00:17:35.676Z,93.04
2017-04-09T00:18:35.657Z,93.42
2017-04-09T00:19:35.644Z,92.94
2017-04-09T00:20:35.630Z,92.76
2017-04-09T00:21:35.614Z,92.47
2017-04-09T00:22:35.597Z,92.85
2017-04-09T00:23:35.586Z,92.94
2017-04-09T00:24:35.268Z,92.66
2017-04-09T00:25:35.554Z,92.76
2017-04-09T00:26:35.539Z,91.91
2017-04-09T00:27:35.524Z,91.91
2017-04-09T00:28:35.510Z,92
2017-04-09T00:29:35.496Z,92.1
2017-04-09T00:30:35.482Z,91.62
2017-04-09T00:31:35.465Z,91.81
2017-04-09T00:32:35.452Z,91.72
2017-04-09T00:33:35.439Z,91.43
2017-04-09T00:34:35.420Z,91.24
2017-04-09T00:35:35.408Z,91.43
2017-04-09T00:36:35.391Z,91.34
2017-04-09T00:37:35.382Z,90.96
2017-04-09T00:38:35.361Z,91.05
2017-04-09T00:39:35.353Z,90.77
2017-04-09T00:40:35.331Z,90.67
2017-04-09T00:41:35.317Z,90.3
2017-04-09T00:42:35.304Z,90.48
2017-04-09T00:43:35.287Z,90.2
2017-04-09T00:44:35.272Z,90.2
2017-04-09T00:45:34.958Z,89.92
2017-04-09T00:46:35.245Z,90.11
2017-04-09T00:47:34.924Z,90.11
2017-04-09T00:48:34.945Z,90.01
2017-04-09T00:49:34.895Z,89.63
2017-04-09T00:50:34.882Z,89.82
2017-04-09T00:51:35.169Z,89.54
2017-04-09T00:52:34.850Z,89.82
2017-04-09T00:53:34.838Z,89.92
2017-04-09T00:54:35.125Z,89.44
2017-04-09T00:55:35.108Z,89.35
2017-04-09T00:56:35.091Z,89.25
2017-04-09T00:57:35.079Z,89.16
2017-04-09T00:58:34.761Z,88.97
2017-04-09T00:59:34.745Z,89.16
2017-04-09T01:00:34.729Z,89.06
2017-04-09T01:01:35.019Z,89.06
2017-04-09T01:02:35.003Z,88.97
2017-04-09T01:03:34.989Z,88.87
2017-04-09T01:04:34.970Z,88.87
2017-04-09T01:05:34.959Z,88.68
2017-04-09T01:06:34.943Z,88.78
2017-04-09T01:07:34.927Z,88.4
2017-04-09T01:08:34.912Z,88.68
2017-04-09T01:09:34.897Z,88.68
2017-04-09T01:10:34.879Z,87.88
2017-04-09T01:11:34.866Z,88.68
2017-04-09T01:12:34.852Z,88.64
2017-04-09T01:13:34.541Z,88.31
2017-04-09T01:14:34.818Z,88.12
2017-04-09T01:15:34.839Z,87.88
2017-04-09T01:16:34.791Z,88.17
2017-04-09T01:17:34.777Z,88.07
2017-04-09T01:18:34.761Z,87.7
2017-04-09T01:19:34.746Z,88.21
2017-04-09T01:20:34.728Z,87.55
2017-04-09T01:21:34.713Z,87.84
2017-04-09T01:22:34.701Z,87.08
2017-04-09T01:23:34.686Z,87.36
2017-04-09T01:24:34.669Z,87.17
2017-04-09T01:25:34.655Z,86.79
2017-04-09T01:26:34.637Z,87.13
2017-04-09T01:27:34.622Z,87.23
2017-04-09T01:28:34.605Z,87.36
2017-04-09T01:29:34.605Z,86.56
2017-04-09T01:30:34.577Z,86.47
2017-04-09T01:31:34.762Z,86.47
2017-04-09T01:32:34.750Z,86.6
2017-04-09T01:33:34.532Z,86.75
2017-04-09T01:34:34.522Z,85.94
2017-04-09T01:35:34.501Z,86.41
2017-04-09T01:36:34.488Z,86.13
2017-04-09T01:37:34.470Z,86.09
2017-04-09T01:38:34.455Z,86.09
2017-04-09T01:39:34.138Z,86.09
2017-04-09T01:40:34.427Z,85.8
2017-04-09T01:41:34.409Z,86.28
2017-04-09T01:42:34.393Z,86.18
2017-04-09T01:43:34.390Z,85.9
2017-04-09T01:44:34.362Z,86.18
2017-04-09T01:45:34.346Z,86.28
2017-04-09T01:46:34.332Z,86.18
2017-04-09T01:47:34.330Z,85.99
2017-04-09T01:48:34.304Z,86.28
2017-04-09T01:49:34.290Z,85.99
2017-04-09T01:50:34.270Z,85.33
2017-04-09T01:51:34.256Z,85.61
2017-04-09T01:52:34.243Z,85.14
2017-04-09T01:53:34.226Z,85.38
2017-04-09T01:54:34.209Z,85.33
2017-04-09T01:55:34.196Z,85.42
2017-04-09T01:56:34.178Z,85.71
2017-04-09T01:57:34.161Z,85.05
2017-04-09T01:58:34.150Z,84.95
2017-04-09T01:59:34.146Z,85.05
2017-04-09T02:00:34.128Z,85.33
2017-04-09T02:01:34.114Z,85.05
2017-04-09T02:02:47.490Z,85.05
2017-04-09T02:03:34.075Z,85.05
2017-04-09T02:04:34.063Z,85.05
2017-04-09T02:05:34.054Z,85.38
2017-04-09T02:06:34.040Z,84.95
2017-04-09T02:07:34.212Z,85.09
2017-04-09T02:08:34.008Z,84.61
2017-04-09T02:09:33.981Z,84.86
2017-04-09T02:10:33.964Z,84.67
2017-04-09T02:11:34.152Z,84.39
2017-04-09T02:12:33.937Z,84.71
2017-04-09T02:13:33.918Z,84.58
2017-04-09T02:14:33.902Z,84.1
2017-04-09T02:15:33.893Z,84.29
2017-04-09T02:16:33.872Z,84.39
2017-04-09T02:17:33.856Z,83.72
2017-04-09T02:18:33.845Z,83.72
2017-04-09T02:19:33.825Z,83.91
2017-04-09T02:20:33.810Z,84.01
2017-04-09T02:21:33.797Z,84.01
2017-04-09T02:22:33.778Z,83.91
2017-04-09T02:23:33.763Z,83.91
2017-04-09T02:24:33.752Z,82.97
2017-04-09T02:25:33.736Z,83.44
2017-04-09T02:26:33.718Z,83.34
2017-04-09T02:27:33.704Z,83.25
2017-04-09T02:28:33.688Z,82.87
2017-04-09T02:29:33.675Z,83.06
2017-04-09T02:30:33.660Z,82.68
2017-04-09T02:31:33.646Z,82.31
2017-04-09T02:32:33.630Z,82.21
2017-04-09T02:33:33.620Z,82.21
2017-04-09T02:34:33.605Z,82.21
2017-04-09T02:35:33.582Z,81.74
2017-04-09T02:36:33.570Z,81.96
2017-04-09T02:37:33.552Z,81.55
2017-04-09T02:38:33.536Z,81.45
2017-04-09T02:39:33.525Z,81.36
2017-04-09T02:40:33.709Z,80.98
2017-04-09T02:41:33.521Z,81.21
2017-04-09T02:42:33.679Z,81.17
2017-04-09T02:43:33.462Z,80.93
2017-04-09T02:44:33.444Z,80.6
2017-04-09T02:45:33.432Z,80.32
2017-04-09T02:46:33.618Z,79.94
2017-04-09T02:47:33.398Z,80.32
2017-04-09T02:48:33.401Z,80.32
2017-04-09T02:49:33.371Z,79.75
2017-04-09T02:50:33.353Z,80.04
2017-04-09T02:51:33.343Z,79.85
2017-04-09T02:52:33.325Z,79.56
2017-04-09T02:53:33.312Z,79.47
2017-04-09T02:54:33.297Z,79.66
2017-04-09T02:55:33.279Z,79.18
2017-04-09T02:56:33.263Z,78.9
2017-04-09T02:57:33.250Z,79.37
2017-04-09T02:58:33.235Z,78.99
2017-04-09T02:59:33.221Z,78.99
2017-04-09T03:00:33.204Z,78.52
2017-04-09T03:01:33.195Z,78.33
2017-04-09T03:02:33.176Z,78.14
2017-04-09T03:03:33.159Z,78.14
2017-04-09T03:04:33.147Z,78.05
2017-04-09T03:05:33.130Z,77.86
2017-04-09T03:06:33.113Z,78.05
2017-04-09T03:07:33.100Z,78.05
2017-04-09T03:08:33.093Z,77.48
2017-04-09T03:09:33.071Z,77.76
2017-04-09T03:10:33.052Z,77.48
2017-04-09T03:11:33.040Z,77.29
2017-04-09T03:12:33.027Z,77.1
2017-04-09T03:13:33.011Z,76.91
2017-04-09T03:14:32.996Z,76.82
2017-04-09T03:15:32.980Z,77.01
2017-04-09T03:16:32.967Z,76.82
2017-04-09T03:17:33.158Z,76.82
2017-04-09T03:18:46.319Z,76.82
2017-04-09T03:19:32.920Z,76.53
2017-04-09T03:20:32.909Z,76.34
2017-04-09T03:21:32.887Z,76.53
2017-04-09T03:22:32.873Z,76.06
2017-04-09T03:23:32.862Z,76.25
2017-04-09T03:24:32.844Z,76.25
2017-04-09T03:25:32.832Z,76.53
2017-04-09T03:26:32.814Z,76.44
2017-04-09T03:27:32.802Z,76.06
2017-04-09T03:28:32.783Z,76.53
2017-04-09T03:29:32.768Z,76.25
2017-04-09T03:30:32.756Z,76.53
2017-04-09T03:31:32.737Z,76.15
2017-04-09T03:32:32.723Z,75.96
2017-04-09T03:33:32.408Z,76.15
2017-04-09T03:34:32.693Z,76.06
2017-04-09T03:35:32.686Z,76.15
2017-04-09T03:36:32.663Z,75.87
2017-04-09T03:37:32.649Z,76.06
2017-04-09T03:38:32.633Z,76.06
2017-04-09T03:39:32.616Z,76.15
2017-04-09T03:40:32.604Z,75.78
2017-04-09T03:41:32.585Z,75.68
2017-04-09T03:42:32.571Z,75.78
2017-04-09T03:43:32.555Z,75.59
2017-04-09T03:44:32.539Z,75.59
2017-04-09T03:45:32.524Z,75.68
2017-04-09T03:46:32.511Z,75.68
2017-04-09T03:47:32.496Z,75.68
2017-04-09T03:48:32.483Z,75.02
2017-04-09T03:49:32.464Z,75.4
2017-04-09T03:50:32.446Z,75.49
2017-04-09T03:51:32.432Z,75.49
2017-04-09T03:52:32.618Z,75.31
2017-04-09T03:53:32.602Z,75.4
2017-04-09T03:54:32.387Z,75.4
2017-04-09T03:55:32.370Z,75.49
2017-04-09T03:56:32.361Z,75.31
2017-04-09T03:57:32.342Z,75.49
2017-04-09T03:58:32.323Z,75.4
2017-04-09T03:59:32.318Z,75.49
2017-04-09T04:00:32.295Z,75.4
2017-04-09T04:01:32.280Z,75.31
2017-04-09T04:02:32.265Z,74.93
2017-04-09T04:03:32.251Z,75.49
2017-04-09T04:04:32.234Z,75.21
2017-04-09T04:05:32.218Z,75.12
2017-04-09T04:06:32.202Z,75.12
2017-04-09T04:07:32.186Z,75.4
2017-04-09T04:08:32.171Z,75.31
2017-04-09T04:09:32.160Z,75.31
2017-04-09T04:10:32.142Z,75.21
2017-04-09T04:11:32.128Z,75.31
2017-04-09T04:12:32.114Z,75.4
2017-04-09T04:13:32.095Z,75.31
2017-04-09T04:14:32.082Z,75.31
2017-04-09T04:15:32.066Z,75.4
2017-04-09T04:16:32.050Z,75.31
2017-04-09T04:17:32.062Z,75.31
2017-04-09T04:18:32.023Z,75.31
2017-04-09T04:19:32.009Z,75.31
2017-04-09T04:20:31.988Z,74.93
2017-04-09T04:21:31.974Z,75.49
2017-04-09T04:22:31.958Z,75.21
2017-04-09T04:23:31.941Z,75.12
2017-04-09T04:24:31.928Z,75.4
2017-04-09T04:25:31.912Z,75.49
2017-04-09T04:26:31.898Z,75.49
2017-04-09T04:27:31.882Z,75.49
2017-04-09T04:28:31.866Z,75.31
2017-04-09T04:29:31.850Z,75.31
2017-04-09T04:30:31.837Z,75.21
2017-04-09T04:31:31.819Z,75.31
2017-04-09T04:32:31.806Z,75.21
2017-04-09T04:33:31.792Z,75.49
2017-04-09T04:34:31.773Z,75.02
2017-04-09T04:35:31.757Z,75.49
2017-04-09T04:36:31.740Z,75.4
2017-04-09T04:37:31.726Z,75.78
2017-04-09T04:38:31.711Z,75.87
2017-04-09T04:39:31.696Z,75.87
2017-04-09T04:40:31.681Z,75.59
2017-04-09T04:41:31.665Z,75.78
2017-04-09T04:42:31.651Z,75.96
2017-04-09T04:43:31.635Z,75.59
2017-04-09T04:44:31.620Z,75.4
2017-04-09T04:45:31.606Z,75.4
2017-04-09T04:46:31.591Z,75.4
2017-04-09T04:47:31.575Z,75.4
2017-04-09T04:48:31.559Z,75.59
2017-04-09T04:49:31.541Z,75.4
2017-04-09T04:50:31.528Z,75.78
2017-04-09T04:51:31.514Z,75.49
2017-04-09T04:52:31.497Z,75.78
2017-04-09T04:53:31.481Z,75.49
2017-04-09T04:54:31.466Z,75.02
2017-04-09T04:55:31.450Z,75.21
2017-04-09T04:56:31.433Z,75.4
2017-04-09T04:57:31.420Z,75.31
2017-04-09T04:58:31.409Z,75.12
2017-04-09T04:59:31.392Z,75.4
2017-04-09T05:00:31.374Z,75.4
2017-04-09T05:01:31.357Z,75.49
2017-04-09T05:02:31.342Z,75.68
2017-04-09T05:03:31.327Z,75.81
2017-04-09T05:04:31.313Z,75.68
2017-04-09T05:05:31.297Z,75.72
2017-04-09T05:06:31.280Z,75.72
2017-04-09T05:07:31.263Z,75.91
2017-04-09T05:08:31.253Z,75.72
2017-04-09T05:09:31.235Z,75.62
2017-04-09T05:10:31.221Z,75.62
2017-04-09T05:11:31.207Z,75.62
2017-04-09T05:12:31.189Z,75.34
2017-04-09T05:13:31.175Z,75.53
2017-04-09T05:14:31.158Z,75.15
2017-04-09T05:15:31.142Z,75.24
2017-04-09T05:16:31.130Z,75.24
2017-04-09T05:17:31.116Z,75.34
2017-04-09T05:18:31.098Z,75.91
2017-04-09T05:19:31.085Z,75.81
2017-04-09T05:20:31.070Z,75.43
2017-04-09T05:21:31.053Z,76
2017-04-09T05:22:31.038Z,75.91
2017-04-09T05:23:31.025Z,75.81
2017-04-09T05:24:31.007Z,76.1
2017-04-09T05:25:30.991Z,76.19
2017-04-09T05:26:30.979Z,76
2017-04-09T05:27:30.967Z,76.1
2017-04-09T05:28:30.946Z,76.48
2017-04-09T05:29:30.931Z,76.67
2017-04-09T05:30:30.915Z,76.95
2017-04-09T05:31:30.902Z,76.48
2017-04-09T05:32:30.884Z,76.57
2017-04-09T05:33:30.871Z,77.04
2017-04-09T05:34:30.852Z,77.23
2017-04-09T05:35:30.839Z,77.04
2017-04-09T05:36:30.826Z,77.51
2017-04-09T05:37:30.812Z,77.89
2017-04-09T05:38:30.791Z,77.89
2017-04-09T05:39:30.780Z,77.42
2017-04-09T05:40:30.769Z,78.08
2017-04-09T05:41:30.747Z,77.89
2017-04-09T05:42:30.738Z,78.37
2017-04-09T05:43:30.719Z,78.18
2017-04-09T05:44:30.705Z,78.08
2017-04-09T05:45:30.686Z,78.18
2017-04-09T05:46:30.676Z,78.65
2017-04-09T05:47:30.658Z,78.56
2017-04-09T05:48:30.645Z,78.65
2017-04-09T05:49:30.629Z,79.13
2017-04-09T05:50:30.616Z,78.98
2017-04-09T05:51:30.598Z,79.17
2017-04-09T05:52:30.583Z,78.98
2017-04-09T05:53:30.571Z,79.26
2017-04-09T05:54:30.553Z,79.07
2017-04-09T05:55:30.541Z,79.07
2017-04-09T05:56:30.526Z,78.88
2017-04-09T05:57:30.513Z,79.17
2017-04-09T05:58:30.497Z,79.55
2017-04-09T05:59:30.481Z,79.5
2017-04-09T06:00:30.470Z,79.26
2017-04-09T06:01:30.452Z,79.36
2017-04-09T06:02:30.436Z,79.17
2017-04-09T06:03:30.423Z,79.45
2017-04-09T06:04:30.410Z,79.45
2017-04-09T06:05:30.392Z,79.45
2017-04-09T06:06:30.379Z,79.64
2017-04-09T06:07:30.364Z,79.64
2017-04-09T06:08:30.350Z,79.64
2017-04-09T06:09:30.341Z,79.64
2017-04-09T06:10:30.320Z,80.11
2017-04-09T06:11:30.303Z,79.93
2017-04-09T06:12:30.287Z,80.3
2017-04-09T06:13:30.285Z,80.3
2017-04-09T06:14:30.256Z,80.11
2017-04-09T06:15:30.243Z,80.11
2017-04-09T06:16:30.230Z,80.11
2017-04-09T06:17:30.221Z,79.93
2017-04-09T06:18:30.200Z,80.02
2017-04-09T06:19:30.189Z,80.02
2017-04-09T06:20:30.171Z,80.02
2017-04-09T06:21:30.154Z,80.02
2017-04-09T06:22:30.142Z,80.02
2017-04-09T06:23:30.127Z,80.11
2017-04-09T06:24:30.115Z,80.68
2017-04-09T06:25:30.096Z,80.4
2017-04-09T06:26:30.084Z,80.3
2017-04-09T06:27:30.085Z,80.4
2017-04-09T06:28:30.056Z,80.58
2017-04-09T06:29:30.039Z,80.11
2017-04-09T06:30:30.021Z,80.58
2017-04-09T06:31:30.005Z,80.21
2017-04-09T06:32:30.000Z,80.4
2017-04-09T06:33:29.975Z,80.4
2017-04-09T06:34:29.967Z,80.49
2017-04-09T06:35:29.951Z,80.49
2017-04-09T06:36:29.633Z,80.4
2017-04-09T06:37:29.917Z,80.3
2017-04-09T06:38:29.904Z,80.49
2017-04-09T06:39:29.888Z,80.68
2017-04-09T06:40:29.872Z,80.82
2017-04-09T06:41:29.866Z,80.34
2017-04-09T06:42:29.847Z,80.3
2017-04-09T06:43:29.831Z,80.4
2017-04-09T06:44:29.823Z,80.77
2017-04-09T06:45:29.803Z,80.68
2017-04-09T06:46:29.786Z,80.4
2017-04-09T06:47:29.773Z,80.68
2017-04-09T06:48:29.760Z,80.82
2017-04-09T06:49:29.746Z,80.82
2017-04-09T06:50:29.730Z,80.91
2017-04-09T06:51:29.413Z,81.01
2017-04-09T06:52:29.702Z,80.3
2017-04-09T06:53:29.688Z,80.68
2017-04-09T06:54:29.673Z,81.01
2017-04-09T06:55:29.659Z,80.53
2017-04-09T06:56:29.644Z,80.63
2017-04-09T06:57:29.629Z,80.91
2017-04-09T06:58:29.617Z,80.91
2017-04-09T06:59:29.302Z,80.82
2017-04-09T07:00:29.587Z,80.82
2017-04-09T07:01:29.575Z,80.67
2017-04-09T07:02:29.557Z,80.82
2017-04-09T07:03:29.549Z,80.72
2017-04-09T07:04:29.567Z,80.72
2017-04-09T07:05:29.517Z,80.67
2017-04-09T07:06:29.507Z,80.06
2017-04-09T07:07:29.492Z,80.25
2017-04-09T07:08:29.476Z,80.15
2017-04-09T07:09:29.463Z,80.15
2017-04-09T07:10:29.457Z,80.06
2017-04-09T07:11:29.437Z,80.34
2017-04-09T07:12:29.420Z,80.67
2017-04-09T07:13:29.411Z,80.1
2017-04-09T07:14:29.400Z,80.38
2017-04-09T07:15:29.382Z,80.29
2017-04-09T07:16:29.369Z,80.38
2017-04-09T07:17:29.355Z,80.1
2017-04-09T07:18:29.340Z,80.1
2017-04-09T07:19:29.331Z,80.48
2017-04-09T07:20:29.318Z,80.52
2017-04-09T07:21:29.300Z,80.33
2017-04-09T07:22:29.291Z,80.33
2017-04-09T07:23:29.281Z,80.14
2017-04-09T07:24:29.265Z,79.57
2017-04-09T07:25:29.252Z,79.66
2017-04-09T07:26:29.243Z,79.85
2017-04-09T07:27:29.228Z,79.76
2017-04-09T07:28:29.215Z,79.85
2017-04-09T07:29:29.199Z,79.76
2017-04-09T07:30:29.184Z,79.66
2017-04-09T07:31:29.175Z,79.76
2017-04-09T07:32:29.163Z,79.61
2017-04-09T07:33:29.149Z,79.14
2017-04-09T07:34:29.137Z,78.62
2017-04-09T07:35:29.124Z,78.96
2017-04-09T07:36:29.111Z,79.25
2017-04-09T07:37:28.797Z,79.15
2017-04-09T07:38:29.092Z,78.96
2017-04-09T07:39:29.075Z,79.1
2017-04-09T07:40:29.061Z,79.04
2017-04-09T07:41:29.049Z,78.91
2017-04-09T07:42:29.036Z,78.62
2017-04-09T07:43:29.025Z,78.3
2017-04-09T07:44:29.015Z,78.67
2017-04-09T07:45:28.999Z,79.15
2017-04-09T07:46:28.991Z,78.91
2017-04-09T07:47:28.974Z,78.81
2017-04-09T07:48:28.965Z,79.1
2017-04-09T07:49:28.947Z,78.81
2017-04-09T07:50:28.941Z,78.34
2017-04-09T07:51:28.928Z,78.39
2017-04-09T07:52:28.916Z,78.49
2017-04-09T07:53:28.600Z,78.62
2017-04-09T07:54:28.888Z,78.91
2017-04-09T07:55:28.575Z,78.91
2017-04-09T07:56:28.868Z,79
2017-04-09T07:57:28.851Z,78.81
2017-04-09T07:58:28.842Z,78.72
2017-04-09T07:59:28.825Z,78.34
2017-04-09T08:00:28.816Z,78.43
2017-04-09T08:01:28.806Z,78.43
2017-04-09T08:02:28.794Z,78.15
2017-04-09T08:03:28.783Z,78.67
2017-04-09T08:04:28.769Z,78.62
2017-04-09T08:05:28.756Z,78.53
2017-04-09T08:06:28.741Z,78.43
2017-04-09T08:07:28.739Z,78.49
2017-04-09T08:08:28.719Z,78.58
2017-04-09T08:09:28.404Z,78.96
2017-04-09T08:10:28.392Z,78.39
2017-04-09T08:11:28.687Z,78.39
2017-04-09T08:12:28.670Z,78.77
2017-04-09T08:13:28.656Z,78.91
2017-04-09T08:14:28.642Z,79.1
2017-04-09T08:15:28.634Z,79.04
2017-04-09T08:16:28.620Z,78.81
2017-04-09T08:17:28.303Z,78.91
2017-04-09T08:18:28.593Z,78.91
2017-04-09T08:19:28.583Z,78.62
2017-04-09T08:20:28.568Z,78.53
2017-04-09T08:21:28.556Z,78.3
2017-04-09T08:22:28.549Z,79
2017-04-09T08:23:28.537Z,79.19
2017-04-09T08:24:28.520Z,78.66
2017-04-09T08:25:28.507Z,78.24
2017-04-09T08:26:28.498Z,78.72
2017-04-09T08:27:28.483Z,78.87
2017-04-09T08:28:28.481Z,78.96
2017-04-09T08:29:28.159Z,78.91
2017-04-09T08:30:28.446Z,78.77
2017-04-09T08:31:28.431Z,78.96
2017-04-09T08:32:28.420Z,79.28
2017-04-09T08:33:28.414Z,78.96
2017-04-09T08:34:28.396Z,79.34
2017-04-09T08:35:28.386Z,78.96
2017-04-09T08:36:28.369Z,78.96
2017-04-09T08:37:28.358Z,78.87
2017-04-09T08:38:28.349Z,79.76
2017-04-09T08:39:28.331Z,79.57
2017-04-09T08:40:28.318Z,79.47
2017-04-09T08:41:28.305Z,79.47
2017-04-09T08:42:27.992Z,79.66
2017-04-09T08:43:28.283Z,79.28
2017-04-09T08:44:28.267Z,78.91
2017-04-09T08:45:28.255Z,79.63
2017-04-09T08:46:28.245Z,79.44
2017-04-09T08:47:28.233Z,79.76
2017-04-09T08:48:28.221Z,79.28
2017-04-09T08:49:28.207Z,79.57
2017-04-09T08:50:28.197Z,79.66
2017-04-09T08:51:28.180Z,79.76
2017-04-09T08:52:27.870Z,79.63
2017-04-09T08:53:28.156Z,80.04
2017-04-09T08:54:28.147Z,79.47
2017-04-09T08:55:28.136Z,80.04
2017-04-09T08:56:28.126Z,80.08
2017-04-09T08:57:28.132Z,80.08
2017-04-09T08:58:27.794Z,79.9
2017-04-09T08:59:28.081Z,79.9
2017-04-09T09:00:27.770Z,80.14
2017-04-09T09:01:28.056Z,80.33
2017-04-09T09:02:28.045Z,80.08
2017-04-09T09:03:28.039Z,79.76
2017-04-09T09:04:28.018Z,79.57
2017-04-09T09:05:28.009Z,79.63
2017-04-09T09:06:28.003Z,80.1
2017-04-09T09:07:27.683Z,80.33
2017-04-09T09:08:27.970Z,80.27
2017-04-09T09:09:27.955Z,80.43
2017-04-09T09:10:27.945Z,80.04
2017-04-09T09:11:27.935Z,80.14
2017-04-09T09:12:27.918Z,80.43
2017-04-09T09:13:27.908Z,80
2017-04-09T09:14:27.898Z,80.71
2017-04-09T09:15:27.882Z,80.56
2017-04-09T09:16:27.869Z,80.65
2017-04-09T09:17:27.897Z,80.94
2017-04-09T09:18:27.846Z,80.65
2017-04-09T09:19:27.829Z,80.37
2017-04-09T09:20:27.823Z,80.24
2017-04-09T09:21:27.807Z,80.24
2017-04-09T09:22:27.796Z,80.33
2017-04-09T09:23:27.781Z,81.09
2017-04-09T09:24:27.471Z,81.13
2017-04-09T09:25:27.759Z,81.26
2017-04-09T09:26:27.748Z,81.21
2017-04-09T09:27:27.734Z,81.21
2017-04-09T09:28:27.724Z,80.74
2017-04-09T09:29:27.719Z,80.41
2017-04-09T09:30:27.401Z,80.56
2017-04-09T09:31:27.686Z,81.07
2017-04-09T09:32:27.677Z,81.17
2017-04-09T09:33:27.668Z,80.93
2017-04-09T09:34:27.654Z,81.3
2017-04-09T09:35:27.643Z,81.16
2017-04-09T09:36:27.629Z,80.77
2017-04-09T09:37:27.618Z,80.55
2017-04-09T09:38:27.620Z,80.93
2017-04-09T09:39:27.601Z,80.93
2017-04-09T09:40:27.587Z,81.02
2017-04-09T09:41:27.575Z,80.93
2017-04-09T09:42:27.565Z,80.58
2017-04-09T09:43:27.555Z,80.16
2017-04-09T09:44:27.544Z,80.74
2017-04-09T09:45:27.530Z,80.87
2017-04-09T09:46:27.520Z,80.87
2017-04-09T09:47:27.513Z,80.4
2017-04-09T09:48:27.501Z,80.26
2017-04-09T09:49:27.520Z,80.55
2017-04-09T09:50:27.482Z,80.69
2017-04-09T09:51:27.468Z,80.32
2017-04-09T09:52:27.454Z,80.79
2017-04-09T09:53:27.453Z,80.45
2017-04-09T09:54:27.434Z,80.64
2017-04-09T09:55:27.425Z,80.74
2017-04-09T09:56:27.414Z,80.45
2017-04-09T09:57:27.405Z,80.74
2017-04-09T09:58:27.398Z,80.64
2017-04-09T09:59:27.379Z,80.74
2017-04-09T10:00:27.369Z,80.77
2017-04-09T10:01:27.357Z,81.1
2017-04-09T10:02:27.347Z,80.76
2017-04-09T10:03:27.338Z,81.1
2017-04-09T10:04:27.328Z,80.86
2017-04-09T10:05:27.317Z,80.76
2017-04-09T10:06:27.309Z,81.05
2017-04-09T10:07:27.295Z,81.14
2017-04-09T10:08:27.288Z,81.05
2017-04-09T10:09:27.276Z,80.95
2017-04-09T10:10:27.271Z,80.99
2017-04-09T10:11:27.259Z,81.09
2017-04-09T10:12:27.252Z,81.51
2017-04-09T10:13:27.239Z,80.98
2017-04-09T10:14:27.236Z,81.32
2017-04-09T10:15:27.227Z,81.36
2017-04-09T10:16:27.215Z,80.79
2017-04-09T10:17:27.206Z,80.94
2017-04-09T10:18:27.194Z,80.5
2017-04-09T10:19:27.188Z,80.65
2017-04-09T10:20:27.179Z,80.79
2017-04-09T10:21:27.173Z,81.17
2017-04-09T10:22:27.163Z,81.49
2017-04-09T10:23:27.163Z,80.77
2017-04-09T10:24:26.845Z,81.06
2017-04-09T10:25:26.839Z,80.87
2017-04-09T10:26:27.133Z,80.91
2017-04-09T10:27:27.128Z,80.91
2017-04-09T10:28:27.118Z,80.68
2017-04-09T10:29:27.110Z,80.91
2017-04-09T10:30:27.101Z,80.47
2017-04-09T10:31:26.798Z,80.81
2017-04-09T10:32:27.088Z,80.85
2017-04-09T10:33:27.080Z,80.19
2017-04-09T10:34:26.782Z,80.28
2017-04-09T10:35:27.070Z,80.19
2017-04-09T10:36:26.759Z,80.09
2017-04-09T10:37:27.054Z,80.04
2017-04-09T10:38:27.046Z,79.8
2017-04-09T10:39:27.044Z,79.77
2017-04-09T10:40:27.036Z,79.57
2017-04-09T10:41:27.029Z,79.44
2017-04-09T10:42:27.020Z,79.25
2017-04-09T10:43:27.015Z,79.53
2017-04-09T10:44:27.008Z,79.82
2017-04-09T10:45:27.007Z,79.86
2017-04-09T10:46:26.999Z,79.71
2017-04-09T10:47:26.686Z,79.48
2017-04-09T10:48:26.980Z,79.06
2017-04-09T10:49:26.976Z,79.06
2017-04-09T10:50:26.967Z,79.06
2017-04-09T10:51:26.962Z,78.86
2017-04-09T10:52:26.960Z,78.77
2017-04-09T10:53:26.950Z,78.44
2017-04-09T10:54:26.942Z,78.59
2017-04-09T10:55:26.934Z,78.83
2017-04-09T10:56:26.928Z,78.49
2017-04-09T10:57:26.923Z,78.92
2017-04-09T10:58:26.916Z,78.92
2017-04-09T10:59:26.907Z,78.67
2017-04-09T11:00:26.901Z,78.44
2017-04-09T11:01:26.895Z,79.27
2017-04-09T11:02:26.889Z,78.64
2017-04-09T11:03:26.881Z,78.83
2017-04-09T11:04:26.873Z,78.64
2017-04-09T11:05:26.864Z,78.44
2017-04-09T11:06:26.857Z,78.83
2017-04-09T11:07:26.849Z,78.86
2017-04-09T11:08:26.846Z,78.96
2017-04-09T11:09:26.835Z,79.02
2017-04-09T11:10:26.830Z,78.86
2017-04-09T11:11:26.826Z,78.23
2017-04-09T11:12:26.817Z,78.25
2017-04-09T11:13:26.811Z,78.59
2017-04-09T11:14:26.805Z,78.83
2017-04-09T11:15:26.794Z,79.02
2017-04-09T11:16:26.791Z,78.77
2017-04-09T11:17:26.780Z,78.83
2017-04-09T11:18:26.473Z,78.96
2017-04-09T11:19:26.769Z,78.86
2017-04-09T11:20:26.768Z,78.96
2017-04-09T11:21:26.756Z,79.15
2017-04-09T11:22:26.747Z,78.64
2017-04-09T11:23:26.739Z,79.27
2017-04-09T11:24:26.732Z,79.21
2017-04-09T11:25:26.726Z,79.82
2017-04-09T11:26:26.720Z,79.8
2017-04-09T11:27:26.713Z,79.65
2017-04-09T11:28:26.704Z,79.02
2017-04-09T11:29:26.698Z,78.94
2017-04-09T11:30:26.690Z,78.85
2017-04-09T11:31:26.684Z,78.49
2017-04-09T11:32:26.679Z,78.31
2017-04-09T11:33:26.671Z,78.73
2017-04-09T11:34:26.670Z,78.86
2017-04-09T11:35:26.655Z,78.91
2017-04-09T11:36:26.649Z,78.91
2017-04-09T11:37:26.640Z,79.19
2017-04-09T11:38:26.636Z,79.14
2017-04-09T11:39:26.627Z,78.75
2017-04-09T11:40:26.625Z,78.67
2017-04-09T11:41:26.614Z,78.64
2017-04-09T11:42:26.608Z,77.87
2017-04-09T11:43:26.600Z,77.32
2017-04-09T11:44:26.594Z,77.77
2017-04-09T11:45:26.587Z,77.53
2017-04-09T11:46:26.576Z,77.11
2017-04-09T11:47:26.570Z,76.84
2017-04-09T11:48:26.560Z,77.22
2017-04-09T11:49:26.551Z,78.08
2017-04-09T11:50:26.242Z,78.3
2017-04-09T11:51:26.535Z,78.77
2017-04-09T11:52:26.544Z,78.48
2017-04-09T11:53:26.520Z,78.67
2017-04-09T11:54:26.508Z,78.06
2017-04-09T11:55:26.497Z,78.34
2017-04-09T11:56:26.491Z,78.63
2017-04-09T11:57:26.478Z,79.05
2017-04-09T11:58:26.472Z,79.05
2017-04-09T11:59:26.463Z,79.09
2017-04-09T12:00:26.453Z,79.38
2017-04-09T12:01:26.450Z,79.41
2017-04-09T12:02:26.437Z,80.02
2017-04-09T12:03:26.430Z,79.88
2017-04-09T12:04:26.417Z,80.39
2017-04-09T12:05:26.411Z,80.66
2017-04-09T12:06:26.554Z,80.04
2017-04-09T12:07:26.393Z,80.09
2017-04-09T12:08:26.383Z,79.99
2017-04-09T12:09:26.379Z,80.51
2017-04-09T12:10:26.373Z,79.61
2017-04-09T12:11:26.365Z,79.28
2017-04-09T12:12:26.359Z,78.77
2017-04-09T12:13:26.349Z,78.73
2017-04-09T12:14:26.341Z,79.21
2017-04-09T12:15:26.335Z,79.77
2017-04-09T12:16:26.363Z,79.77
2017-04-09T12:17:26.324Z,79.33
2017-04-09T12:18:26.316Z,79.19
2017-04-09T12:19:26.309Z,79.02
2017-04-09T12:20:26.304Z,78.73
2017-04-09T12:21:26.292Z,79.35
2017-04-09T12:22:26.285Z,79.43
2017-04-09T12:23:26.277Z,79.8
2017-04-09T12:24:26.275Z,79.88
2017-04-09T12:25:26.264Z,78.58
2017-04-09T12:26:26.257Z,78.23
2017-04-09T12:27:26.253Z,78.91
2017-04-09T12:28:26.247Z,78.94
2017-04-09T12:29:26.242Z,79.08
2017-04-09T12:30:26.235Z,78.99
2017-04-09T12:31:26.231Z,79.69
2017-04-09T12:32:26.225Z,78.97
2017-04-09T12:33:26.216Z,79.25
2017-04-09T12:34:26.212Z,79.06
2017-04-09T12:35:26.206Z,78.55
2017-04-09T12:36:26.198Z,78.64
2017-04-09T12:37:26.193Z,77.7
2017-04-09T12:38:26.191Z,77.28
2017-04-09T12:39:26.182Z,77.2
2017-04-09T12:40:26.174Z,77.83
2017-04-09T12:41:26.167Z,78.1
2017-04-09T12:42:26.162Z,78.33
2017-04-09T12:43:26.158Z,77.62
2017-04-09T12:44:26.149Z,77.95
2017-04-09T12:45:26.142Z,77.7
2017-04-09T12:46:26.140Z,77.8
2017-04-09T12:47:26.132Z,78.05
2017-04-09T12:48:26.124Z,77.67
2017-04-09T12:49:25.816Z,77.3
2017-04-09T12:50:26.112Z,77.25
2017-04-09T12:51:25.803Z,77.25
2017-04-09T12:52:25.797Z,77.26
2017-04-09T12:53:26.093Z,77.3
2017-04-09T12:54:26.090Z,77.2
2017-04-09T12:55:26.086Z,77.44